createdAt,value
2018-02-18T00:00:47.265Z,89.23
2018-02-18T00:02:14.567Z,89.52
2018-02-18T00:03:41.620Z,89.54
2018-02-18T00:05:08.773Z,89.45
2018-02-18T00:06:39.954Z,89.43
2018-02-18T00:08:02.793Z,89.33
2018-02-18T00:09:34.003Z,89.19
2018-02-18T00:11:00.894Z,89.22
2018-02-18T00:12:27.821Z,89.02
2018-02-18T00:13:54.703Z,89.07
2018-02-18T00:15:17.889Z,88.97
2018-02-18T00:16:48.888Z,88.89
2018-02-18T00:18:11.970Z,88.79
2018-02-18T00:19:39.175Z,88.82
2018-02-18T00:21:06.196Z,88.84
2018-02-18T00:22:33.355Z,88.75
2018-02-18T00:24:00.773Z,88.35
2018-02-18T00:25:31.906Z,88.68
2018-02-18T00:26:59.015Z,88.76
2018-02-18T00:28:22.515Z,88.83
2018-02-18T00:29:53.673Z,89.09
2018-02-18T00:31:16.719Z,89.22
2018-02-18T00:32:47.771Z,89.33
2018-02-18T00:34:14.577Z,89.28
2018-02-18T00:35:37.805Z,89.21
2018-02-18T00:37:08.761Z,89.19
2018-02-18T00:38:31.992Z,89.02
2018-02-18T00:40:03.099Z,88.90
2018-02-18T00:41:26.297Z,88.88
2018-02-18T00:42:53.460Z,88.91
2018-02-18T00:44:20.816Z,88.75
2018-02-18T00:45:47.990Z,88.56
2018-02-18T00:47:15.253Z,88.25
2018-02-18T00:48:42.346Z,87.89
2018-02-18T00:50:13.410Z,87.72
2018-02-18T00:51:40.472Z,87.69
2018-02-18T00:53:07.527Z,87.79
2018-02-18T00:54:34.600Z,88.05
2018-02-18T00:56:01.837Z,88.09
2018-02-18T00:57:24.855Z,88.04
2018-02-18T00:58:52.069Z,87.79
2018-02-18T01:00:19.245Z,87.70
2018-02-18T01:01:50.601Z,88.12
2018-02-18T01:03:13.795Z,87.86
2018-02-18T01:04:40.941Z,88.03
2018-02-18T01:06:07.978Z,87.91
2018-02-18T01:07:39.017Z,87.59
2018-02-18T01:09:06.191Z,87.44
2018-02-18T01:10:29.460Z,87.36
2018-02-18T01:11:56.829Z,87.35
2018-02-18T01:13:28.122Z,87.31
2018-02-18T01:14:55.332Z,87.41
2018-02-18T01:16:18.636Z,87.33
2018-02-18T01:17:45.731Z,87.24
2018-02-18T01:19:16.743Z,87.28
2018-02-18T01:20:43.959Z,87.30
2018-02-18T01:22:07.113Z,87.28
2018-02-18T01:23:34.562Z,87.16
2018-02-18T01:25:05.800Z,86.92
2018-02-18T01:26:33.075Z,86.81
2018-02-18T01:27:56.182Z,86.78
2018-02-18T01:29:23.381Z,86.60
2018-02-18T01:30:50.673Z,86.67
2018-02-18T01:32:17.592Z,86.50
2018-02-18T01:33:48.791Z,86.09
2018-02-18T01:35:12.082Z,85.83
2018-02-18T01:36:43.164Z,85.93
2018-02-18T01:38:06.153Z,86.04
2018-02-18T01:39:33.555Z,86.07
2018-02-18T01:41:00.891Z,85.99
2018-02-18T01:42:27.995Z,85.80
2018-02-18T01:43:55.305Z,85.60
2018-02-18T01:45:22.375Z,85.52
2018-02-18T01:46:49.772Z,85.35
2018-02-18T01:48:17.101Z,84.84
2018-02-18T01:49:48.380Z,84.90
2018-02-18T01:51:15.698Z,84.81
2018-02-18T01:52:38.788Z,84.99
2018-02-18T01:54:06.001Z,85.05
2018-02-18T01:55:32.967Z,85.00
2018-02-18T01:57:04.240Z,84.81
2018-02-18T01:58:31.424Z,84.84
2018-02-18T01:59:54.740Z,84.94
2018-02-18T02:01:21.867Z,84.78
2018-02-18T02:02:52.903Z,84.51
2018-02-18T02:04:16.132Z,84.70
2018-02-18T02:05:43.286Z,84.83
2018-02-18T02:07:14.414Z,84.67
2018-02-18T02:08:41.499Z,84.87
2018-02-18T02:10:04.329Z,85.22
2018-02-18T02:11:35.369Z,85.13
2018-02-18T02:13:02.488Z,84.95
2018-02-18T02:14:25.494Z,84.88
2018-02-18T02:15:52.550Z,84.73
2018-02-18T02:17:23.682Z,84.72
2018-02-18T02:18:50.971Z,84.56
2018-02-18T02:20:14.023Z,84.52
2018-02-18T02:21:45.038Z,84.30
2018-02-18T02:23:12.232Z,84.15
2018-02-18T02:24:35.023Z,83.60
2018-02-18T02:26:02.220Z,84.09
2018-02-18T02:27:33.418Z,83.83
2018-02-18T02:28:56.749Z,83.62
2018-02-18T02:30:23.701Z,83.46
2018-02-18T02:31:54.959Z,83.10
2018-02-18T02:33:18.159Z,83.08
2018-02-18T02:34:45.216Z,82.81
2018-02-18T02:36:12.746Z,82.87
2018-02-18T02:37:43.954Z,82.78
2018-02-18T02:39:07.092Z,83.16
2018-02-18T02:40:38.174Z,83.54
2018-02-18T02:42:01.358Z,83.37
2018-02-18T02:43:32.694Z,83.41
2018-02-18T02:44:55.916Z,83.29
2018-02-18T02:46:23.195Z,83.21
2018-02-18T02:47:54.412Z,83.06
2018-02-18T02:49:17.666Z,82.75
2018-02-18T02:50:48.870Z,82.71
2018-02-18T02:52:12.275Z,82.30
2018-02-18T02:53:39.371Z,81.97
2018-02-18T02:55:10.685Z,81.49
2018-02-18T02:56:37.816Z,81.60
2018-02-18T02:58:04.987Z,82.11
2018-02-18T02:59:28.159Z,82.46
2018-02-18T03:00:59.487Z,83.13
2018-02-18T03:02:22.462Z,83.21
2018-02-18T03:03:49.584Z,83.14
2018-02-18T03:05:20.867Z,83.35
2018-02-18T03:06:44.041Z,83.58
2018-02-18T03:08:15.165Z,83.72
2018-02-18T03:09:38.214Z,83.13
2018-02-18T03:11:09.202Z,82.67
2018-02-18T03:12:36.383Z,82.50
2018-02-18T03:13:59.739Z,81.98
2018-02-18T03:15:30.992Z,82.05
2018-02-18T03:16:58.169Z,82.58
2018-02-18T03:18:21.341Z,83.02
2018-02-18T03:19:48.527Z,82.84
2018-02-18T03:21:15.707Z,82.88
2018-02-18T03:22:46.810Z,82.05
2018-02-18T03:24:13.991Z,82.60
2018-02-18T03:25:41.085Z,82.17
2018-02-18T03:27:04.111Z,82.24
2018-02-18T03:28:31.339Z,80.88
2018-02-18T03:30:02.194Z,80.09
2018-02-18T03:31:25.422Z,81.85
2018-02-18T03:32:52.672Z,82.52
2018-02-18T03:34:19.849Z,82.14
2018-02-18T03:35:47.000Z,82.48
2018-02-18T03:37:14.351Z,83.13
2018-02-18T03:38:45.526Z,82.56
2018-02-18T03:40:08.511Z,83.04
2018-02-18T03:41:39.621Z,82.98
2018-02-18T03:43:02.759Z,83.18
2018-02-18T03:44:33.817Z,83.38
2018-02-18T03:46:00.993Z,83.25
2018-02-18T03:47:24.189Z,83.54
2018-02-18T03:48:55.319Z,83.75
2018-02-18T03:50:22.706Z,84.15
2018-02-18T03:51:45.800Z,84.35
2018-02-18T03:53:17.106Z,84.47
2018-02-18T03:54:40.360Z,84.86
2018-02-18T03:56:11.506Z,84.87
2018-02-18T03:57:34.421Z,84.14
2018-02-18T03:59:05.475Z,84.44
2018-02-18T04:00:28.688Z,84.12
2018-02-18T04:01:59.833Z,84.44
2018-02-18T04:03:26.759Z,83.50
2018-02-18T04:04:49.946Z,83.66
2018-02-18T04:06:21.208Z,83.71
2018-02-18T04:07:48.477Z,83.83
2018-02-18T04:09:11.726Z,83.76
2018-02-18T04:10:42.713Z,83.71
2018-02-18T04:12:09.831Z,82.97
2018-02-18T04:13:36.780Z,82.86
2018-02-18T04:15:04.060Z,82.77
2018-02-18T04:16:27.174Z,82.63
2018-02-18T04:17:54.434Z,82.93
2018-02-18T04:19:25.508Z,83.40
2018-02-18T04:20:48.829Z,83.68
2018-02-18T04:22:16.040Z,83.26
2018-02-18T04:23:43.065Z,83.01
2018-02-18T04:25:14.258Z,82.50
2018-02-18T04:26:41.431Z,82.04
2018-02-18T04:28:04.444Z,81.73
2018-02-18T04:29:35.670Z,81.38
2018-02-18T04:30:58.806Z,81.18
2018-02-18T04:32:26.014Z,81.37
2018-02-18T04:33:53.345Z,81.11
2018-02-18T04:35:20.605Z,80.74
2018-02-18T04:36:47.752Z,81.15
2018-02-18T04:38:14.936Z,81.03
2018-02-18T04:39:42.028Z,81.04
2018-02-18T04:41:09.111Z,80.06
2018-02-18T04:42:36.178Z,80.08
2018-02-18T04:44:03.264Z,79.91
2018-02-18T04:45:34.578Z,79.98
2018-02-18T04:46:57.626Z,80.42
2018-02-18T04:48:28.859Z,80.90
2018-02-18T04:49:56.048Z,80.18
2018-02-18T04:51:23.303Z,80.49
2018-02-18T04:52:46.550Z,80.49
2018-02-18T04:54:17.686Z,80.44
2018-02-18T04:55:44.694Z,81.22
2018-02-18T04:57:08.044Z,79.32
2018-02-18T04:58:39.132Z,78.17
2018-02-18T05:00:06.153Z,76.19
2018-02-18T05:01:33.261Z,76.18
2018-02-18T05:02:56.549Z,76.99
2018-02-18T05:04:27.721Z,77.11
2018-02-18T05:05:50.869Z,78.50
2018-02-18T05:07:18.056Z,79.91
2018-02-18T05:08:45.365Z,80.70
2018-02-18T05:10:16.578Z,80.15
2018-02-18T05:11:43.622Z,80.92
2018-02-18T05:13:10.693Z,81.37
2018-02-18T05:14:33.845Z,81.08
2018-02-18T05:16:01.088Z,80.12
2018-02-18T05:17:32.206Z,78.89
2018-02-18T05:18:59.500Z,79.19
2018-02-18T05:20:26.596Z,78.99
2018-02-18T05:21:53.745Z,78.49
2018-02-18T05:23:17.039Z,78.45
2018-02-18T05:24:48.373Z,77.83
2018-02-18T05:26:11.592Z,77.91
2018-02-18T05:27:38.699Z,77.65
2018-02-18T05:29:05.898Z,77.75
2018-02-18T05:30:33.000Z,78.17
2018-02-18T05:32:00.207Z,78.04
2018-02-18T05:33:27.432Z,77.07
2018-02-18T05:34:54.764Z,77.58
2018-02-18T05:36:25.982Z,77.71
2018-02-18T05:37:53.037Z,78.28
2018-02-18T05:39:20.268Z,78.64
2018-02-18T05:40:43.462Z,78.65
2018-02-18T05:42:10.664Z,79.24
2018-02-18T05:43:37.836Z,78.64
2018-02-18T05:45:04.990Z,78.34
2018-02-18T05:46:32.049Z,78.49
2018-02-18T05:48:03.268Z,79.03
2018-02-18T05:49:26.111Z,78.11
2018-02-18T05:50:53.409Z,78.31
2018-02-18T05:52:20.609Z,78.19
2018-02-18T05:53:51.678Z,78.95
2018-02-18T05:55:18.795Z,78.40
2018-02-18T05:56:42.242Z,78.63
2018-02-18T05:58:09.319Z,77.79
2018-02-18T05:59:36.407Z,77.70
2018-02-18T06:01:03.590Z,77.15
2018-02-18T06:02:30.826Z,76.43
2018-02-18T06:04:01.872Z,76.76
2018-02-18T06:05:25.104Z,75.28
2018-02-18T06:06:56.344Z,75.75
2018-02-18T06:08:19.559Z,76.54
2018-02-18T06:09:46.711Z,75.54
2018-02-18T06:11:17.735Z,75.36
2018-02-18T06:12:45.012Z,75.44
2018-02-18T06:14:07.905Z,75.30
2018-02-18T06:15:35.120Z,74.75
2018-02-18T06:17:06.441Z,74.94
2018-02-18T06:18:33.642Z,75.21
2018-02-18T06:20:00.764Z,75.87
2018-02-18T06:21:27.883Z,75.64
2018-02-18T06:22:51.201Z,74.99
2018-02-18T06:24:22.439Z,75.24
2018-02-18T06:25:49.857Z,75.08
2018-02-18T06:27:12.942Z,75.52
2018-02-18T06:28:40.209Z,76.32
2018-02-18T06:30:11.308Z,76.56
2018-02-18T06:31:38.626Z,76.92
2018-02-18T06:33:01.441Z,76.51
2018-02-18T06:34:32.596Z,76.34
2018-02-18T06:35:59.835Z,76.85
2018-02-18T06:37:23.079Z,75.77
2018-02-18T06:38:50.244Z,76.19
2018-02-18T06:40:17.316Z,76.28
2018-02-18T06:41:48.638Z,76.29
2018-02-18T06:43:11.904Z,76.70
2018-02-18T06:44:42.824Z,76.65
2018-02-18T06:46:09.856Z,77.27
2018-02-18T06:47:37.064Z,77.79
2018-02-18T06:49:04.238Z,76.92
2018-02-18T06:50:27.463Z,77.39
2018-02-18T06:51:58.699Z,77.71
2018-02-18T06:53:21.935Z,77.98
2018-02-18T06:54:49.098Z,78.67
2018-02-18T06:56:16.273Z,79.26
2018-02-18T06:57:47.517Z,79.13
2018-02-18T06:59:14.741Z,77.93
2018-02-18T07:00:41.797Z,77.46
2018-02-18T07:02:08.842Z,77.42
2018-02-18T07:03:32.163Z,77.30
2018-02-18T07:05:03.290Z,77.83
2018-02-18T07:06:30.468Z,77.89
2018-02-18T07:07:57.621Z,77.67
2018-02-18T07:09:20.942Z,78.28
2018-02-18T07:10:48.076Z,78.83
2018-02-18T07:12:15.168Z,79.04
2018-02-18T07:13:42.325Z,79.08
2018-02-18T07:15:09.507Z,79.56
2018-02-18T07:16:36.682Z,78.82
2018-02-18T07:18:07.600Z,79.33
2018-02-18T07:19:30.856Z,79.44
2018-02-18T07:21:01.880Z,79.65
2018-02-18T07:22:25.028Z,79.55
2018-02-18T07:23:52.297Z,79.66
2018-02-18T07:25:19.112Z,80.15
2018-02-18T07:26:50.276Z,79.54
2018-02-18T07:28:13.611Z,78.50
2018-02-18T07:29:40.518Z,78.19
2018-02-18T07:31:07.491Z,77.70
2018-02-18T07:32:38.295Z,77.73
2018-02-18T07:34:05.232Z,77.88
2018-02-18T07:35:28.497Z,77.55
2018-02-18T07:36:59.712Z,78.06
2018-02-18T07:38:23.101Z,78.12
2018-02-18T07:39:50.035Z,78.15
2018-02-18T07:41:21.439Z,77.84
2018-02-18T07:42:48.514Z,76.66
2018-02-18T07:44:15.586Z,76.28
2018-02-18T07:45:38.722Z,75.54
2018-02-18T07:47:06.018Z,75.19
2018-02-18T07:48:33.289Z,74.82
2018-02-18T07:50:04.536Z,74.59
2018-02-18T07:51:31.818Z,74.77
2018-02-18T07:52:58.814Z,74.47
2018-02-18T07:54:22.010Z,74.63
2018-02-18T07:55:49.229Z,74.31
2018-02-18T07:57:16.593Z,74.99
2018-02-18T07:58:47.711Z,74.39
2018-02-18T08:00:10.923Z,74.31
2018-02-18T08:01:41.815Z,74.30
2018-02-18T08:03:08.916Z,74.15
2018-02-18T08:04:32.046Z,74.11
2018-02-18T08:05:58.994Z,73.49
2018-02-18T08:07:26.137Z,73.69
2018-02-18T08:08:53.253Z,72.19
2018-02-18T08:10:20.622Z,70.00
2018-02-18T08:11:47.769Z,69.05
2018-02-18T08:13:15.003Z,68.61
2018-02-18T08:14:42.262Z,69.22
2018-02-18T08:16:13.332Z,69.41
2018-02-18T08:17:36.494Z,69.59
2018-02-18T08:19:03.798Z,69.07
2018-02-18T08:20:31.089Z,69.35
2018-02-18T08:22:02.387Z,69.67
2018-02-18T08:23:29.607Z,69.68
2018-02-18T08:24:56.689Z,69.98
2018-02-18T08:26:20.065Z,70.21
2018-02-18T08:27:47.149Z,71.00
2018-02-18T08:29:24.010Z,71.11
2018-02-18T08:30:51.073Z,71.70
2018-02-18T08:32:22.317Z,71.65
2018-02-18T08:33:45.523Z,71.69
2018-02-18T08:35:12.711Z,71.22
2018-02-18T08:36:39.851Z,70.59
2018-02-18T08:38:11.080Z,70.04
2018-02-18T08:39:37.658Z,70.03
2018-02-18T08:41:04.959Z,69.38
2018-02-18T08:42:32.057Z,68.82
2018-02-18T08:43:59.292Z,69.32
2018-02-18T08:45:22.626Z,68.84
2018-02-18T08:46:52.963Z,69.28
2018-02-18T08:48:15.993Z,69.26
2018-02-18T08:49:43.108Z,69.72
2018-02-18T08:51:09.953Z,69.10
2018-02-18T08:52:40.975Z,68.68
2018-02-18T08:54:07.747Z,68.70
2018-02-18T08:55:30.652Z,69.00
2018-02-18T08:56:57.811Z,68.98
2018-02-18T08:58:29.107Z,68.80
2018-02-18T08:59:52.379Z,68.94
2018-02-18T09:01:22.946Z,69.33
2018-02-18T09:02:46.208Z,68.87
2018-02-18T09:04:13.420Z,69.17
2018-02-18T09:05:44.294Z,68.25
2018-02-18T09:07:11.504Z,68.02
2018-02-18T09:08:38.674Z,66.70
2018-02-18T09:10:05.934Z,67.35
2018-02-18T09:11:29.115Z,67.04
2018-02-18T09:12:56.432Z,67.21
2018-02-18T09:14:23.744Z,67.14
2018-02-18T09:15:50.642Z,67.00
2018-02-18T09:17:17.925Z,66.22
2018-02-18T09:18:49.133Z,66.08
2018-02-18T09:20:16.343Z,65.78
2018-02-18T09:21:43.458Z,66.30
2018-02-18T09:23:06.802Z,66.23
2018-02-18T09:24:33.984Z,66.37
2018-02-18T09:26:01.289Z,66.03
2018-02-18T09:27:32.112Z,66.98
2018-02-18T09:28:59.564Z,67.33
2018-02-18T09:30:22.782Z,65.96
2018-02-18T09:31:49.583Z,66.44
2018-02-18T09:33:20.716Z,66.09
2018-02-18T09:34:43.582Z,66.45
2018-02-18T09:36:10.350Z,66.66
2018-02-18T09:37:41.185Z,66.27
2018-02-18T09:39:04.250Z,67.64
2018-02-18T09:40:31.650Z,66.01
2018-02-18T09:41:58.801Z,66.09
2018-02-18T09:43:30.042Z,64.52
2018-02-18T09:44:57.274Z,64.67
2018-02-18T09:46:23.942Z,64.73
2018-02-18T09:47:50.526Z,64.91
2018-02-18T09:49:13.872Z,65.45
2018-02-18T09:50:41.070Z,65.05
2018-02-18T09:52:07.752Z,63.99
2018-02-18T09:53:38.526Z,65.78
2018-02-18T09:55:01.699Z,65.77
2018-02-18T09:56:28.954Z,63.86
2018-02-18T09:57:56.223Z,64.80
2018-02-18T09:59:23.115Z,64.54
2018-02-18T10:00:54.385Z,63.37
2018-02-18T10:02:17.796Z,64.09
2018-02-18T10:03:48.691Z,63.43
2018-02-18T10:05:11.662Z,63.71
2018-02-18T10:06:38.963Z,64.80
2018-02-18T10:08:06.002Z,63.41
2018-02-18T10:09:33.312Z,64.39
2018-02-18T10:11:00.695Z,63.07
2018-02-18T10:12:27.823Z,62.53
2018-02-18T10:13:59.070Z,63.06
2018-02-18T10:15:26.277Z,62.52
2018-02-18T10:16:49.629Z,62.37
2018-02-18T10:18:16.892Z,59.94
2018-02-18T10:19:43.752Z,60.90
2018-02-18T10:21:14.838Z,62.06
2018-02-18T10:22:38.141Z,63.07
2018-02-18T10:24:09.280Z,63.21
2018-02-18T10:25:32.246Z,61.98
2018-02-18T10:26:59.466Z,61.91
2018-02-18T10:28:30.729Z,61.70
2018-02-18T10:29:54.095Z,60.48
2018-02-18T10:31:21.270Z,60.46
2018-02-18T10:32:48.381Z,60.42
2018-02-18T10:34:15.701Z,61.10
2018-02-18T10:35:47.033Z,61.75
2018-02-18T10:37:10.116Z,60.97
2018-02-18T10:38:37.273Z,59.31
2018-02-18T10:40:04.814Z,58.84
2018-02-18T10:41:35.999Z,58.79
2018-02-18T10:42:59.422Z,59.33
2018-02-18T10:44:26.702Z,59.62
2018-02-18T10:45:57.961Z,59.20
2018-02-18T10:47:25.288Z,61.04
2018-02-18T10:48:48.592Z,61.68
2018-02-18T10:50:19.392Z,61.23
2018-02-18T10:51:42.510Z,61.08
2018-02-18T10:53:13.709Z,60.25
2018-02-18T10:54:40.855Z,60.11
2018-02-18T10:56:04.140Z,60.08
2018-02-18T10:57:35.514Z,59.98
2018-02-18T10:58:58.724Z,60.05
2018-02-18T11:00:30.076Z,60.50
2018-02-18T11:01:53.376Z,60.05
2018-02-18T11:03:20.609Z,58.63
2018-02-18T11:04:47.835Z,58.83
2018-02-18T11:06:15.005Z,59.99
2018-02-18T11:07:42.197Z,59.26
2018-02-18T11:09:09.250Z,59.04
2018-02-18T11:10:36.252Z,60.31
2018-02-18T11:12:07.384Z,60.88
2018-02-18T11:13:30.608Z,61.30
2018-02-18T11:15:01.769Z,60.55
2018-02-18T11:16:29.002Z,59.28
2018-02-18T11:17:56.353Z,58.82
2018-02-18T11:19:23.565Z,60.50
2018-02-18T11:20:46.688Z,60.90
2018-02-18T11:22:17.842Z,60.59
2018-02-18T11:23:45.105Z,59.04
2018-02-18T11:25:12.046Z,58.76
2018-02-18T11:26:38.967Z,58.97
2018-02-18T11:28:06.221Z,59.66
2018-02-18T11:29:32.684Z,59.60
2018-02-18T11:30:56.083Z,59.58
2018-02-18T11:32:23.246Z,59.99
2018-02-18T11:33:50.487Z,59.22
2018-02-18T11:35:21.672Z,59.66
2018-02-18T11:36:44.885Z,57.64
2018-02-18T11:38:11.446Z,57.75
2018-02-18T11:39:38.661Z,58.79
2018-02-18T11:41:09.262Z,57.57
2018-02-18T11:42:36.352Z,57.88
2018-02-18T11:44:03.616Z,57.80
2018-02-18T11:45:30.804Z,58.66
2018-02-18T11:46:54.042Z,58.69
2018-02-18T11:48:20.760Z,58.28
2018-02-18T11:49:47.741Z,59.13
2018-02-18T11:51:14.512Z,60.24
2018-02-18T11:52:45.458Z,58.98
2018-02-18T11:54:12.708Z,59.91
2018-02-18T11:55:39.838Z,59.47
2018-02-18T11:57:07.053Z,60.72
2018-02-18T11:58:34.091Z,59.63
2018-02-18T11:59:57.261Z,59.26
2018-02-18T12:01:28.823Z,58.57
2018-02-18T12:02:52.115Z,58.91
2018-02-18T12:04:19.448Z,59.64
2018-02-18T12:05:46.131Z,58.59
2018-02-18T12:07:12.886Z,58.24
2018-02-18T12:08:40.200Z,57.71
2018-02-18T12:10:07.426Z,58.18
2018-02-18T12:11:38.779Z,58.14
2018-02-18T12:13:06.171Z,58.18
2018-02-18T12:14:29.380Z,58.29
2018-02-18T12:16:00.150Z,58.83
2018-02-18T12:17:23.561Z,59.73
2018-02-18T12:18:50.907Z,57.70
2018-02-18T12:20:18.091Z,57.86
2018-02-18T12:21:49.366Z,56.38
2018-02-18T12:23:12.706Z,55.88
2018-02-18T12:24:43.571Z,56.36
2018-02-18T12:26:06.698Z,55.59
2018-02-18T12:27:37.972Z,55.89
2018-02-18T12:29:01.203Z,56.42
2018-02-18T12:30:28.550Z,55.86
2018-02-18T12:31:55.554Z,55.82
2018-02-18T12:33:26.968Z,54.35
2018-02-18T12:34:50.141Z,54.38
2018-02-18T12:36:17.430Z,53.51
2018-02-18T12:37:44.602Z,53.05
2018-02-18T12:39:11.762Z,54.92
2018-02-18T12:40:42.985Z,55.79
2018-02-18T12:42:10.138Z,53.56
2018-02-18T12:43:37.484Z,53.88
2018-02-18T12:45:00.842Z,55.11
2018-02-18T12:46:27.888Z,53.24
2018-02-18T12:47:58.975Z,52.62
2018-02-18T12:49:22.278Z,52.52
2018-02-18T12:50:53.442Z,53.20
2018-02-18T12:52:16.325Z,53.76
2018-02-18T12:53:47.527Z,54.21
2018-02-18T12:55:10.835Z,53.28
2018-02-18T12:56:41.863Z,54.05
2018-02-18T12:58:04.888Z,54.16
2018-02-18T12:59:36.190Z,54.40
2018-02-18T13:01:03.465Z,53.10
2018-02-18T13:02:26.174Z,52.74
2018-02-18T13:03:53.504Z,52.50
2018-02-18T13:05:24.903Z,52.56
2018-02-18T13:06:48.276Z,51.91
2018-02-18T13:08:15.616Z,51.46
2018-02-18T13:09:42.714Z,53.08
2018-02-18T13:11:13.844Z,53.25
2018-02-18T13:12:36.905Z,52.65
2018-02-18T13:14:04.318Z,52.07
2018-02-18T13:15:35.564Z,51.94
2018-02-18T13:16:58.607Z,51.03
2018-02-18T13:18:29.914Z,51.36
2018-02-18T13:19:57.267Z,51.20
2018-02-18T13:21:24.667Z,51.40
2018-02-18T13:22:48.017Z,51.41
2018-02-18T13:24:19.267Z,51.11
2018-02-18T13:25:46.442Z,49.77
2018-02-18T13:27:09.138Z,49.77
2018-02-18T13:28:36.319Z,49.66
2018-02-18T13:30:03.695Z,50.63
2018-02-18T13:31:30.398Z,51.61
2018-02-18T13:32:57.137Z,51.73
2018-02-18T13:34:27.644Z,51.55
2018-02-18T13:35:50.368Z,52.14
2018-02-18T13:37:17.507Z,51.19
2018-02-18T13:38:48.838Z,51.27
2018-02-18T13:40:16.155Z,52.10
2018-02-18T13:41:43.373Z,52.34
2018-02-18T13:43:06.385Z,51.59
2018-02-18T13:44:33.679Z,51.82
2018-02-18T13:46:00.982Z,51.72
2018-02-18T13:47:28.412Z,51.95
2018-02-18T13:48:59.734Z,52.08
2018-02-18T13:50:23.105Z,52.69
2018-02-18T13:51:50.409Z,52.97
2018-02-18T13:53:17.707Z,52.71
2018-02-18T13:54:44.643Z,52.15
2018-02-18T13:56:11.868Z,52.17
2018-02-18T13:57:39.190Z,51.62
2018-02-18T13:59:06.248Z,51.79
2018-02-18T14:00:37.237Z,52.51
2018-02-18T14:02:00.499Z,52.30
2018-02-18T14:03:27.790Z,52.78
2018-02-18T14:04:59.002Z,52.88
2018-02-18T14:06:22.039Z,53.13
2018-02-18T14:07:53.415Z,53.93
2018-02-18T14:09:16.640Z,54.53
2018-02-18T14:10:43.841Z,54.37
2018-02-18T14:12:11.129Z,55.17
2018-02-18T14:13:38.308Z,55.43
2018-02-18T14:15:09.509Z,55.54
2018-02-18T14:16:36.614Z,55.84
2018-02-18T14:17:59.843Z,54.51
2018-02-18T14:19:26.744Z,54.07
2018-02-18T14:20:53.765Z,53.94
2018-02-18T14:22:21.003Z,54.58
2018-02-18T14:23:52.100Z,54.59
2018-02-18T14:25:19.480Z,53.63
2018-02-18T14:26:46.878Z,53.59
2018-02-18T14:28:13.991Z,54.59
2018-02-18T14:29:40.586Z,52.73
2018-02-18T14:31:03.946Z,52.94
2018-02-18T14:32:35.179Z,52.60
2018-02-18T14:33:58.313Z,53.12
2018-02-18T14:35:25.231Z,53.13
2018-02-18T14:36:56.661Z,53.79
2018-02-18T14:38:19.266Z,54.25
2018-02-18T14:39:49.861Z,54.34
2018-02-18T14:41:13.083Z,53.96
2018-02-18T14:42:44.447Z,54.40
2018-02-18T14:44:07.634Z,54.67
2018-02-18T14:45:34.964Z,54.41
2018-02-18T14:47:05.807Z,54.86
2018-02-18T14:48:32.920Z,55.48
2018-02-18T14:50:00.209Z,55.32
2018-02-18T14:51:23.448Z,56.65
2018-02-18T14:52:54.826Z,56.22
2018-02-18T14:54:21.985Z,55.06
2018-02-18T14:55:45.372Z,56.12
2018-02-18T14:57:12.376Z,56.98
2018-02-18T14:58:39.230Z,56.75
2018-02-18T15:00:10.594Z,56.50
2018-02-18T15:01:33.814Z,56.80
2018-02-18T15:03:05.058Z,56.95
2018-02-18T15:04:28.198Z,56.94
2018-02-18T15:05:55.374Z,57.09
2018-02-18T15:07:22.685Z,57.19
2018-02-18T15:08:53.329Z,56.74
2018-02-18T15:10:16.622Z,57.55
2018-02-18T15:11:43.902Z,57.74
2018-02-18T15:13:11.395Z,58.03
2018-02-18T15:14:41.897Z,57.75
2018-02-18T15:16:05.104Z,58.25
2018-02-18T15:17:36.311Z,58.47
2018-02-18T15:18:59.382Z,58.33
2018-02-18T15:20:26.520Z,57.88
2018-02-18T15:21:53.700Z,57.81
2018-02-18T15:23:20.597Z,58.49
2018-02-18T15:24:47.607Z,58.65
2018-02-18T15:26:14.957Z,59.21
2018-02-18T15:27:46.169Z,59.65
2018-02-18T15:29:09.334Z,60.17
2018-02-18T15:30:35.983Z,60.03
2018-02-18T15:32:07.312Z,59.71
2018-02-18T15:33:34.493Z,59.98
2018-02-18T15:35:01.589Z,59.68
2018-02-18T15:36:24.722Z,59.41
2018-02-18T15:37:55.990Z,60.06
2018-02-18T15:39:18.626Z,59.93
2018-02-18T15:40:45.993Z,60.09
2018-02-18T15:42:12.801Z,60.43
2018-02-18T15:43:40.164Z,61.20
2018-02-18T15:45:11.406Z,60.73
2018-02-18T15:46:38.029Z,60.59
2018-02-18T15:48:05.342Z,60.98
2018-02-18T15:49:28.352Z,61.08
2018-02-18T15:50:55.463Z,60.92
2018-02-18T15:52:22.499Z,61.29
2018-02-18T15:53:49.704Z,61.29
2018-02-18T15:55:20.964Z,61.06
2018-02-18T15:56:48.354Z,61.18
2018-02-18T15:58:11.424Z,61.16
2018-02-18T15:59:38.704Z,61.79
2018-02-18T16:01:06.153Z,61.89
2018-02-18T16:02:33.270Z,61.83
2018-02-18T16:04:04.426Z,62.01
2018-02-18T16:05:31.308Z,62.09
2018-02-18T16:06:54.282Z,62.54
2018-02-18T16:08:25.636Z,62.58
2018-02-18T16:09:48.710Z,62.71
2018-02-18T16:11:15.991Z,62.79
2018-02-18T16:12:47.046Z,62.73
2018-02-18T16:14:10.400Z,62.83
2018-02-18T16:15:41.404Z,63.01
2018-02-18T16:17:04.638Z,63.17
2018-02-18T16:18:35.840Z,63.17
2018-02-18T16:20:02.985Z,63.09
2018-02-18T16:21:26.081Z,63.29
2018-02-18T16:22:56.711Z,63.37
2018-02-18T16:24:23.982Z,63.80
2018-02-18T16:25:47.344Z,63.95
2018-02-18T16:27:14.532Z,63.66
2018-02-18T16:28:41.765Z,63.71
2018-02-18T16:30:08.929Z,63.62
2018-02-18T16:31:40.195Z,63.93
2018-02-18T16:33:03.205Z,64.07
2018-02-18T16:34:30.459Z,64.19
2018-02-18T16:35:57.645Z,64.46
2018-02-18T16:37:24.520Z,64.53
2018-02-18T16:38:51.782Z,64.67
2018-02-18T16:40:18.742Z,64.69
2018-02-18T16:41:45.872Z,64.90
2018-02-18T16:43:13.217Z,65.31
2018-02-18T16:44:40.420Z,65.40
2018-02-18T16:46:07.684Z,65.80
2018-02-18T16:47:38.985Z,65.81
2018-02-18T16:49:06.099Z,66.17
2018-02-18T16:50:33.362Z,66.29
2018-02-18T16:51:56.527Z,66.54
2018-02-18T16:53:23.615Z,66.71
2018-02-18T16:54:54.803Z,66.93
2018-02-18T16:56:21.976Z,67.27
2018-02-18T16:57:49.085Z,67.55
2018-02-18T16:59:12.177Z,67.82
2018-02-18T17:00:39.378Z,67.60
2018-02-18T17:02:06.679Z,67.70
2018-02-18T17:03:33.987Z,67.72
2018-02-18T17:05:05.096Z,67.89
2018-02-18T17:06:28.139Z,68.26
2018-02-18T17:07:55.267Z,68.20
2018-02-18T17:09:22.439Z,68.80
2018-02-18T17:10:53.710Z,68.66
2018-02-18T17:12:17.052Z,68.73
2018-02-18T17:13:48.158Z,68.91
2018-02-18T17:15:11.344Z,69.23
2018-02-18T17:16:42.563Z,69.13
2018-02-18T17:18:09.820Z,69.25
2018-02-18T17:19:37.141Z,69.08
2018-02-18T17:21:04.174Z,69.15
2018-02-18T17:22:31.337Z,69.26
2018-02-18T17:23:58.209Z,69.22
2018-02-18T17:25:21.264Z,69.33
2018-02-18T17:26:48.658Z,69.43
2018-02-18T17:28:19.785Z,69.52
2018-02-18T17:29:42.515Z,69.66
2018-02-18T17:31:09.686Z,69.70
2018-02-18T17:32:36.982Z,69.83
2018-02-18T17:34:08.132Z,69.81
2018-02-18T17:35:35.290Z,69.68
2018-02-18T17:37:02.471Z,69.98
2018-02-18T17:38:25.684Z,69.92
2018-02-18T17:39:52.623Z,70.01
2018-02-18T17:41:19.808Z,70.50
2018-02-18T17:42:46.925Z,70.43
2018-02-18T17:44:14.095Z,70.36
2018-02-18T17:45:41.133Z,70.65
2018-02-18T17:47:12.324Z,70.48
2018-02-18T17:48:35.417Z,70.36
2018-02-18T17:50:02.324Z,69.92
2018-02-18T17:51:29.519Z,70.13
2018-02-18T17:52:56.647Z,70.15
2018-02-18T17:54:23.545Z,70.13
2018-02-18T17:55:50.781Z,70.18
2018-02-18T17:57:21.990Z,69.98
2018-02-18T17:58:49.159Z,69.99
2018-02-18T18:00:16.275Z,69.95
2018-02-18T18:01:43.396Z,69.91
2018-02-18T18:03:06.575Z,70.06
2018-02-18T18:04:33.562Z,70.13
2018-02-18T18:06:04.303Z,70.13
2018-02-18T18:07:27.627Z,70.41
2018-02-18T18:08:54.774Z,70.51
2018-02-18T18:10:21.749Z,70.36
2018-02-18T18:11:48.956Z,70.37
2018-02-18T18:13:16.151Z,70.21
2018-02-18T18:14:47.427Z,70.34
2018-02-18T18:16:14.664Z,70.32
2018-02-18T18:17:37.750Z,70.19
2018-02-18T18:19:09.048Z,70.26
2018-02-18T18:20:32.380Z,70.48
2018-02-18T18:22:03.569Z,70.09
2018-02-18T18:23:30.579Z,70.07
2018-02-18T18:24:53.816Z,69.94
2018-02-18T18:26:24.876Z,70.04
2018-02-18T18:27:51.494Z,70.11
2018-02-18T18:29:14.682Z,70.14
2018-02-18T18:30:45.899Z,69.95
2018-02-18T18:32:09.040Z,70.13
2018-02-18T18:33:36.336Z,70.35
2018-02-18T18:35:07.548Z,70.27
2018-02-18T18:36:30.733Z,70.20
2018-02-18T18:38:01.503Z,70.40
2018-02-18T18:39:28.452Z,70.42
2018-02-18T18:40:55.683Z,70.55
2018-02-18T18:42:18.589Z,70.41